sensor_id;sensor_type;location;lat;lon;timestamp;P1;durP1;ratioP1;P2;durP2;ratioP2
49340;SDS011;35209;51.050;13.678;2022-08-01T00:02:10;1.35;;;1.17;;
49340;SDS011;35209;51.050;13.678;2022-08-01T00:07:12;1.75;;;1.10;;
49340;SDS011;35209;51.050;13.678;2022-08-01T00:12:13;1.20;;;1.10;;
49340;SDS011;35209;51.050;13.678;2022-08-01T00:17:15;1.65;;;1.02;;
49340;SDS011;35209;51.050;13.678;2022-08-01T00:22:17;1.05;;;0.95;;
49340;SDS011;35209;51.050;13.678;2022-08-01T00:27:18;1.50;;;1.10;;
49340;SDS011;35209;51.050;13.678;2022-08-01T00:32:20;2.75;;;1.10;;
49340;SDS011;35209;51.050;13.678;2022-08-01T00:37:22;1.17;;;1.00;;
49340;SDS011;35209;51.050;13.678;2022-08-01T00:42:24;1.20;;;0.98;;
49340;SDS011;35209;51.050;13.678;2022-08-01T00:47:25;1.08;;;0.93;;
49340;SDS011;35209;51.050;13.678;2022-08-01T00:52:27;3.63;;;1.30;;
49340;SDS011;35209;51.050;13.678;2022-08-01T00:57:28;1.42;;;0.98;;
49340;SDS011;35209;51.050;13.678;2022-08-01T01:02:51;2.67;;;1.33;;
49340;SDS011;35209;51.050;13.678;2022-08-01T01:07:54;1.25;;;1.13;;
49340;SDS011;35209;51.050;13.678;2022-08-01T01:18:22;1.73;;;1.40;;
49340;SDS011;35209;51.050;13.678;2022-08-01T01:34:05;2.90;;;1.20;;
49340;SDS011;35209;51.050;13.678;2022-08-01T01:39:07;1.80;;;1.20;;
49340;SDS011;35209;51.050;13.678;2022-08-01T01:44:09;1.58;;;1.20;;
49340;SDS011;35209;51.050;13.678;2022-08-01T01:49:12;1.42;;;1.20;;
49340;SDS011;35209;51.050;13.678;2022-08-01T01:54:15;1.85;;;1.40;;
49340;SDS011;35209;51.050;13.678;2022-08-01T01:59:20;1.50;;;1.23;;
49340;SDS011;35209;51.050;13.678;2022-08-01T02:04:26;1.30;;;1.20;;
49340;SDS011;35209;51.050;13.678;2022-08-01T02:09:29;1.42;;;1.25;;
49340;SDS011;35209;51.050;13.678;2022-08-01T02:14:33;1.83;;;1.20;;
49340;SDS011;35209;51.050;13.678;2022-08-01T02:19:38;1.67;;;1.20;;
49340;SDS011;35209;51.050;13.678;2022-08-01T02:24:50;1.77;;;1.38;;
49340;SDS011;35209;51.050;13.678;2022-08-01T02:30:06;2.38;;;1.35;;
49340;SDS011;35209;51.050;13.678;2022-08-01T02:35:11;1.55;;;1.30;;
49340;SDS011;35209;51.050;13.678;2022-08-01T02:40:19;1.70;;;1.10;;
49340;SDS011;35209;51.050;13.678;2022-08-01T02:45:22;1.80;;;1.20;;
49340;SDS011;35209;51.050;13.678;2022-08-01T02:50:26;2.13;;;1.50;;
49340;SDS011;35209;51.050;13.678;2022-08-01T02:55:30;2.00;;;1.25;;
49340;SDS011;35209;51.050;13.678;2022-08-01T03:00:34;1.73;;;1.33;;
49340;SDS011;35209;51.050;13.678;2022-08-01T03:05:37;3.65;;;1.40;;
49340;SDS011;35209;51.050;13.678;2022-08-01T03:10:41;2.65;;;1.50;;
49340;SDS011;35209;51.050;13.678;2022-08-01T03:15:45;2.13;;;1.38;;
49340;SDS011;35209;51.050;13.678;2022-08-01T03:20:49;1.45;;;1.30;;
49340;SDS011;35209;51.050;13.678;2022-08-01T03:25:52;2.42;;;1.55;;
49340;SDS011;35209;51.050;13.678;2022-08-01T03:30:54;2.35;;;1.50;;
49340;SDS011;35209;51.050;13.678;2022-08-01T03:35:56;1.73;;;1.38;;
49340;SDS011;35209;51.050;13.678;2022-08-01T03:46:11;1.50;;;1.40;;
49340;SDS011;35209;51.050;13.678;2022-08-01T03:51:18;3.08;;;1.45;;
49340;SDS011;35209;51.050;13.678;2022-08-01T03:56:24;1.50;;;1.30;;
49340;SDS011;35209;51.050;13.678;2022-08-01T04:01:26;2.15;;;1.17;;
49340;SDS011;35209;51.050;13.678;2022-08-01T04:06:30;1.27;;;1.10;;
49340;SDS011;35209;51.050;13.678;2022-08-01T04:11:33;1.88;;;1.48;;
49340;SDS011;35209;51.050;13.678;2022-08-01T04:16:36;1.40;;;1.20;;
49340;SDS011;35209;51.050;13.678;2022-08-01T04:21:38;1.70;;;1.40;;
49340;SDS011;35209;51.050;13.678;2022-08-01T04:26:40;3.38;;;1.42;;
49340;SDS011;35209;51.050;13.678;2022-08-01T04:31:45;2.22;;;1.40;;
49340;SDS011;35209;51.050;13.678;2022-08-01T04:36:49;2.10;;;1.40;;
49340;SDS011;35209;51.050;13.678;2022-08-01T04:41:53;3.55;;;1.92;;
49340;SDS011;35209;51.050;13.678;2022-08-01T04:46:59;1.97;;;1.73;;
49340;SDS011;35209;51.050;13.678;2022-08-01T04:52:04;2.17;;;1.77;;
49340;SDS011;35209;51.050;13.678;2022-08-01T04:57:08;3.13;;;1.85;;
49340;SDS011;35209;51.050;13.678;2022-08-01T05:02:17;3.15;;;1.92;;
49340;SDS011;35209;51.050;13.678;2022-08-01T05:07:19;2.13;;;1.80;;
49340;SDS011;35209;51.050;13.678;2022-08-01T05:12:21;1.90;;;1.77;;
49340;SDS011;35209;51.050;13.678;2022-08-01T05:17:23;2.00;;;1.80;;
49340;SDS011;35209;51.050;13.678;2022-08-01T05:22:24;1.77;;;1.67;;
49340;SDS011;35209;51.050;13.678;2022-08-01T05:27:27;2.33;;;1.40;;
49340;SDS011;35209;51.050;13.678;2022-08-01T05:32:30;1.50;;;1.30;;
49340;SDS011;35209;51.050;13.678;2022-08-01T05:37:33;2.95;;;1.50;;
49340;SDS011;35209;51.050;13.678;2022-08-01T05:42:34;1.58;;;1.30;;
49340;SDS011;35209;51.050;13.678;2022-08-01T05:47:36;1.30;;;1.20;;
49340;SDS011;35209;51.050;13.678;2022-08-01T05:52:43;2.20;;;1.35;;
49340;SDS011;35209;51.050;13.678;2022-08-01T05:57:45;1.73;;;1.13;;
49340;SDS011;35209;51.050;13.678;2022-08-01T06:02:47;2.53;;;1.40;;
49340;SDS011;35209;51.050;13.678;2022-08-01T06:07:49;2.45;;;1.45;;
49340;SDS011;35209;51.050;13.678;2022-08-01T06:12:51;1.55;;;1.45;;
49340;SDS011;35209;51.050;13.678;2022-08-01T06:17:53;2.60;;;1.30;;
49340;SDS011;35209;51.050;13.678;2022-08-01T06:22:55;1.63;;;1.40;;
49340;SDS011;35209;51.050;13.678;2022-08-01T06:28:00;1.73;;;1.30;;
49340;SDS011;35209;51.050;13.678;2022-08-01T06:33:02;2.65;;;1.42;;
49340;SDS011;35209;51.050;13.678;2022-08-01T06:38:04;2.10;;;1.42;;
49340;SDS011;35209;51.050;13.678;2022-08-01T06:43:05;1.80;;;1.50;;
49340;SDS011;35209;51.050;13.678;2022-08-01T06:48:07;1.95;;;1.75;;
49340;SDS011;35209;51.050;13.678;2022-08-01T06:53:09;2.45;;;2.08;;
49340;SDS011;35209;51.050;13.678;2022-08-01T06:58:11;4.05;;;2.80;;
49340;SDS011;35209;51.050;13.678;2022-08-01T07:03:12;2.72;;;2.53;;
49340;SDS011;35209;51.050;13.678;2022-08-01T07:08:14;2.80;;;2.60;;
49340;SDS011;35209;51.050;13.678;2022-08-01T07:13:16;2.97;;;2.78;;
49340;SDS011;35209;51.050;13.678;2022-08-01T07:18:37;6.15;;;2.83;;
49340;SDS011;35209;51.050;13.678;2022-08-01T07:23:39;6.03;;;3.45;;
49340;SDS011;35209;51.050;13.678;2022-08-01T07:28:46;3.10;;;2.90;;
49340;SDS011;35209;51.050;13.678;2022-08-01T07:33:48;3.80;;;2.65;;
49340;SDS011;35209;51.050;13.678;2022-08-01T07:38:50;2.17;;;1.98;;
49340;SDS011;35209;51.050;13.678;2022-08-01T07:43:51;1.70;;;1.60;;
49340;SDS011;35209;51.050;13.678;2022-08-01T07:48:59;1.77;;;1.67;;
49340;SDS011;35209;51.050;13.678;2022-08-01T07:54:01;1.85;;;1.63;;
49340;SDS011;35209;51.050;13.678;2022-08-01T07:59:03;1.70;;;1.60;;
49340;SDS011;35209;51.050;13.678;2022-08-01T08:04:05;1.70;;;1.50;;
49340;SDS011;35209;51.050;13.678;2022-08-01T08:09:07;1.58;;;1.48;;
49340;SDS011;35209;51.050;13.678;2022-08-01T08:14:09;1.40;;;1.30;;
49340;SDS011;35209;51.050;13.678;2022-08-01T08:19:11;1.75;;;1.17;;
49340;SDS011;35209;51.050;13.678;2022-08-01T08:24:13;2.20;;;1.30;;
49340;SDS011;35209;51.050;13.678;2022-08-01T08:29:26;1.38;;;1.27;;
49340;SDS011;35209;51.050;13.678;2022-08-01T08:34:30;1.52;;;1.10;;
49340;SDS011;35209;51.050;13.678;2022-08-01T08:39:34;1.77;;;1.00;;
49340;SDS011;35209;51.050;13.678;2022-08-01T08:44:42;1.77;;;0.90;;
49340;SDS011;35209;51.050;13.678;2022-08-01T08:49:44;0.70;;;0.70;;
49340;SDS011;35209;51.050;13.678;2022-08-01T08:54:50;1.00;;;0.85;;
49340;SDS011;35209;51.050;13.678;2022-08-01T08:59:52;1.50;;;0.70;;
49340;SDS011;35209;51.050;13.678;2022-08-01T09:04:55;0.60;;;0.60;;
49340;SDS011;35209;51.050;13.678;2022-08-01T09:09:57;5.65;;;0.90;;
49340;SDS011;35209;51.050;13.678;2022-08-01T09:14:59;1.48;;;0.98;;
49340;SDS011;35209;51.050;13.678;2022-08-01T09:20:01;1.35;;;0.90;;
49340;SDS011;35209;51.050;13.678;2022-08-01T09:25:11;1.65;;;0.82;;
49340;SDS011;35209;51.050;13.678;2022-08-01T09:30:14;1.60;;;0.90;;
49340;SDS011;35209;51.050;13.678;2022-08-01T09:35:41;0.70;;;0.70;;
49340;SDS011;35209;51.050;13.678;2022-08-01T09:40:46;0.47;;;0.47;;
49340;SDS011;35209;51.050;13.678;2022-08-01T09:45:56;1.45;;;0.50;;
49340;SDS011;35209;51.050;13.678;2022-08-01T09:50:59;2.25;;;0.40;;
49340;SDS011;35209;51.050;13.678;2022-08-01T09:56:10;0.30;;;0.30;;
49340;SDS011;35209;51.050;13.678;2022-08-01T10:01:13;0.38;;;0.38;;
49340;SDS011;35209;51.050;13.678;2022-08-01T10:06:19;0.40;;;0.40;;
49340;SDS011;35209;51.050;13.678;2022-08-01T10:11:25;1.00;;;0.40;;
49340;SDS011;35209;51.050;13.678;2022-08-01T10:16:36;1.10;;;0.40;;
49340;SDS011;35209;51.050;13.678;2022-08-01T10:21:39;1.52;;;0.40;;
49340;SDS011;35209;51.050;13.678;2022-08-01T10:27:02;1.02;;;0.30;;
49340;SDS011;35209;51.050;13.678;2022-08-01T10:32:09;1.70;;;0.32;;
49340;SDS011;35209;51.050;13.678;2022-08-01T10:37:11;0.47;;;0.20;;
49340;SDS011;35209;51.050;13.678;2022-08-01T10:42:16;0.80;;;0.50;;
49340;SDS011;35209;51.050;13.678;2022-08-01T10:47:21;0.75;;;0.35;;
49340;SDS011;35209;51.050;13.678;2022-08-01T10:53:08;0.65;;;0.20;;
49340;SDS011;35209;51.050;13.678;2022-08-01T10:58:32;1.35;;;0.30;;
49340;SDS011;35209;51.050;13.678;2022-08-01T11:03:44;0.20;;;0.20;;
49340;SDS011;35209;51.050;13.678;2022-08-01T11:09:05;0.43;;;0.20;;
49340;SDS011;35209;51.050;13.678;2022-08-01T11:14:17;1.25;;;0.30;;
49340;SDS011;35209;51.050;13.678;2022-08-01T11:19:26;1.98;;;0.20;;
49340;SDS011;35209;51.050;13.678;2022-08-01T11:25:08;1.13;;;0.30;;
49340;SDS011;35209;51.050;13.678;2022-08-01T11:35:16;1.27;;;0.28;;
49340;SDS011;35209;51.050;13.678;2022-08-01T11:45:45;7.03;;;1.88;;
49340;SDS011;35209;51.050;13.678;2022-08-01T11:50:51;4.10;;;0.80;;
49340;SDS011;35209;51.050;13.678;2022-08-01T11:55:54;0.68;;;0.55;;
49340;SDS011;35209;51.050;13.678;2022-08-01T12:00:57;0.50;;;0.50;;
49340;SDS011;35209;51.050;13.678;2022-08-01T12:05:59;0.68;;;0.50;;
49340;SDS011;35209;51.050;13.678;2022-08-01T12:11:01;0.52;;;0.40;;
49340;SDS011;35209;51.050;13.678;2022-08-01T12:21:09;0.70;;;0.40;;
49340;SDS011;35209;51.050;13.678;2022-08-01T12:26:11;0.60;;;0.30;;
49340;SDS011;35209;51.050;13.678;2022-08-01T12:31:35;3.40;;;0.40;;
49340;SDS011;35209;51.050;13.678;2022-08-01T12:36:37;0.30;;;0.30;;
49340;SDS011;35209;51.050;13.678;2022-08-01T12:41:39;0.88;;;0.40;;
49340;SDS011;35209;51.050;13.678;2022-08-01T12:46:44;0.33;;;0.33;;
49340;SDS011;35209;51.050;13.678;2022-08-01T12:51:46;0.50;;;0.40;;
49340;SDS011;35209;51.050;13.678;2022-08-01T12:56:57;1.52;;;0.50;;
49340;SDS011;35209;51.050;13.678;2022-08-01T13:02:07;0.88;;;0.40;;
49340;SDS011;35209;51.050;13.678;2022-08-01T13:07:10;1.27;;;0.20;;
49340;SDS011;35209;51.050;13.678;2022-08-01T13:12:11;0.43;;;0.20;;
49340;SDS011;35209;51.050;13.678;2022-08-01T13:17:29;1.95;;;0.20;;
49340;SDS011;35209;51.050;13.678;2022-08-01T13:22:35;1.25;;;0.25;;
49340;SDS011;35209;51.050;13.678;2022-08-01T13:27:38;1.45;;;0.30;;
49340;SDS011;35209;51.050;13.678;2022-08-01T13:33:00;0.32;;;0.20;;
49340;SDS011;35209;51.050;13.678;2022-08-01T13:38:02;0.17;;;0.17;;
49340;SDS011;35209;51.050;13.678;2022-08-01T13:43:03;1.80;;;0.30;;
49340;SDS011;35209;51.050;13.678;2022-08-01T13:48:05;1.27;;;0.25;;
49340;SDS011;35209;51.050;13.678;2022-08-01T13:53:19;1.48;;;0.30;;
49340;SDS011;35209;51.050;13.678;2022-08-01T13:58:20;0.20;;;0.20;;
49340;SDS011;35209;51.050;13.678;2022-08-01T14:03:22;0.52;;;0.43;;
49340;SDS011;35209;51.050;13.678;2022-08-01T14:08:34;0.47;;;0.30;;
49340;SDS011;35209;51.050;13.678;2022-08-01T14:13:35;0.50;;;0.40;;
49340;SDS011;35209;51.050;13.678;2022-08-01T14:18:47;1.55;;;0.40;;
49340;SDS011;35209;51.050;13.678;2022-08-01T14:23:49;0.60;;;0.40;;
49340;SDS011;35209;51.050;13.678;2022-08-01T14:28:50;0.50;;;0.50;;
49340;SDS011;35209;51.050;13.678;2022-08-01T14:33:52;1.50;;;1.40;;
49340;SDS011;35209;51.050;13.678;2022-08-01T14:38:54;3.28;;;2.97;;
49340;SDS011;35209;51.050;13.678;2022-08-01T14:44:00;2.05;;;1.95;;
49340;SDS011;35209;51.050;13.678;2022-08-01T14:49:02;1.02;;;0.80;;
49340;SDS011;35209;51.050;13.678;2022-08-01T14:54:04;2.85;;;0.50;;
49340;SDS011;35209;51.050;13.678;2022-08-01T14:59:07;0.40;;;0.40;;
49340;SDS011;35209;51.050;13.678;2022-08-01T15:04:22;0.75;;;0.43;;
49340;SDS011;35209;51.050;13.678;2022-08-01T15:09:23;0.57;;;0.32;;
49340;SDS011;35209;51.050;13.678;2022-08-01T15:14:25;0.30;;;0.30;;
49340;SDS011;35209;51.050;13.678;2022-08-01T15:19:46;0.90;;;0.40;;
49340;SDS011;35209;51.050;13.678;2022-08-01T15:24:49;0.43;;;0.40;;
49340;SDS011;35209;51.050;13.678;2022-08-01T15:29:57;0.30;;;0.30;;
49340;SDS011;35209;51.050;13.678;2022-08-01T15:34:59;1.35;;;0.35;;
49340;SDS011;35209;51.050;13.678;2022-08-01T15:40:01;1.60;;;0.30;;
49340;SDS011;35209;51.050;13.678;2022-08-01T15:45:04;1.10;;;0.38;;
49340;SDS011;35209;51.050;13.678;2022-08-01T15:50:06;0.38;;;0.30;;
49340;SDS011;35209;51.050;13.678;2022-08-01T15:55:08;0.52;;;0.40;;
49340;SDS011;35209;51.050;13.678;2022-08-01T16:00:11;0.93;;;0.43;;
49340;SDS011;35209;51.050;13.678;2022-08-01T16:05:13;1.17;;;0.50;;
49340;SDS011;35209;51.050;13.678;2022-08-01T16:10:20;0.50;;;0.30;;
49340;SDS011;35209;51.050;13.678;2022-08-01T16:15:22;0.35;;;0.30;;
49340;SDS011;35209;51.050;13.678;2022-08-01T16:20:37;0.85;;;0.52;;
49340;SDS011;35209;51.050;13.678;2022-08-01T16:25:46;1.73;;;0.50;;
49340;SDS011;35209;51.050;13.678;2022-08-01T16:30:47;0.80;;;0.30;;
49340;SDS011;35209;51.050;13.678;2022-08-01T16:36:09;0.57;;;0.40;;
49340;SDS011;35209;51.050;13.678;2022-08-01T16:41:17;0.45;;;0.40;;
49340;SDS011;35209;51.050;13.678;2022-08-01T16:46:23;0.40;;;0.40;;
49340;SDS011;35209;51.050;13.678;2022-08-01T16:51:27;0.65;;;0.40;;
49340;SDS011;35209;51.050;13.678;2022-08-01T16:56:33;0.20;;;0.20;;
49340;SDS011;35209;51.050;13.678;2022-08-01T17:01:34;1.27;;;0.70;;
49340;SDS011;35209;51.050;13.678;2022-08-01T17:06:56;0.40;;;0.30;;
49340;SDS011;35209;51.050;13.678;2022-08-01T17:11:58;0.43;;;0.40;;
49340;SDS011;35209;51.050;13.678;2022-08-01T17:17:00;3.58;;;1.73;;
49340;SDS011;35209;51.050;13.678;2022-08-01T17:22:02;0.95;;;0.60;;
49340;SDS011;35209;51.050;13.678;2022-08-01T17:27:04;1.67;;;0.50;;
49340;SDS011;35209;51.050;13.678;2022-08-01T17:32:12;5.45;;;0.60;;
49340;SDS011;35209;51.050;13.678;2022-08-01T17:37:14;1.60;;;1.25;;
49340;SDS011;35209;51.050;13.678;2022-08-01T17:42:17;0.22;;;0.22;;
49340;SDS011;35209;51.050;13.678;2022-08-01T17:47:18;1.20;;;0.30;;
49340;SDS011;35209;51.050;13.678;2022-08-01T17:52:43;1.10;;;0.30;;
49340;SDS011;35209;51.050;13.678;2022-08-01T17:57:46;0.57;;;0.38;;
49340;SDS011;35209;51.050;13.678;2022-08-01T18:02:48;0.68;;;0.35;;
49340;SDS011;35209;51.050;13.678;2022-08-01T18:07:50;0.30;;;0.30;;
49340;SDS011;35209;51.050;13.678;2022-08-01T18:13:02;0.45;;;0.32;;
49340;SDS011;35209;51.050;13.678;2022-08-01T18:18:06;1.00;;;0.30;;
49340;SDS011;35209;51.050;13.678;2022-08-01T18:23:09;0.30;;;0.30;;
49340;SDS011;35209;51.050;13.678;2022-08-01T18:28:11;1.25;;;0.30;;
49340;SDS011;35209;51.050;13.678;2022-08-01T18:33:33;0.30;;;0.30;;
49340;SDS011;35209;51.050;13.678;2022-08-01T18:38:35;0.88;;;0.30;;
49340;SDS011;35209;51.050;13.678;2022-08-01T18:43:44;1.33;;;0.60;;
49340;SDS011;35209;51.050;13.678;2022-08-01T18:48:46;1.13;;;0.85;;
49340;SDS011;35209;51.050;13.678;2022-08-01T18:53:49;1.20;;;1.10;;
49340;SDS011;35209;51.050;13.678;2022-08-01T18:58:53;0.40;;;0.40;;
49340;SDS011;35209;51.050;13.678;2022-08-01T19:03:56;0.50;;;0.50;;
49340;SDS011;35209;51.050;13.678;2022-08-01T19:08:58;1.58;;;0.65;;
49340;SDS011;35209;51.050;13.678;2022-08-01T19:14:02;0.63;;;0.40;;
49340;SDS011;35209;51.050;13.678;2022-08-01T19:19:05;0.32;;;0.30;;
49340;SDS011;35209;51.050;13.678;2022-08-01T19:24:09;1.10;;;0.50;;
49340;SDS011;35209;51.050;13.678;2022-08-01T19:29:24;0.32;;;0.30;;
49340;SDS011;35209;51.050;13.678;2022-08-01T19:34:47;0.70;;;0.40;;
49340;SDS011;35209;51.050;13.678;2022-08-01T19:40:13;2.15;;;0.40;;
49340;SDS011;35209;51.050;13.678;2022-08-01T19:45:28;0.47;;;0.47;;
49340;SDS011;35209;51.050;13.678;2022-08-01T19:50:30;0.70;;;0.35;;
49340;SDS011;35209;51.050;13.678;2022-08-01T19:55:34;0.35;;;0.35;;
49340;SDS011;35209;51.050;13.678;2022-08-01T20:00:40;0.45;;;0.40;;
49340;SDS011;35209;51.050;13.678;2022-08-01T20:05:43;1.27;;;0.43;;
49340;SDS011;35209;51.050;13.678;2022-08-01T20:10:45;0.90;;;0.57;;
49340;SDS011;35209;51.050;13.678;2022-08-01T20:15:48;0.65;;;0.30;;
49340;SDS011;35209;51.050;13.678;2022-08-01T20:20:52;0.40;;;0.40;;
49340;SDS011;35209;51.050;13.678;2022-08-01T20:25:54;0.40;;;0.40;;
49340;SDS011;35209;51.050;13.678;2022-08-01T20:36:06;0.63;;;0.63;;
49340;SDS011;35209;51.050;13.678;2022-08-01T20:41:26;1.40;;;0.90;;
49340;SDS011;35209;51.050;13.678;2022-08-01T20:46:28;0.60;;;0.50;;
49340;SDS011;35209;51.050;13.678;2022-08-01T20:51:30;1.33;;;0.60;;
49340;SDS011;35209;51.050;13.678;2022-08-01T20:56:36;0.50;;;0.50;;
49340;SDS011;35209;51.050;13.678;2022-08-01T21:07:21;1.35;;;0.60;;
49340;SDS011;35209;51.050;13.678;2022-08-01T21:12:26;0.50;;;0.50;;
49340;SDS011;35209;51.050;13.678;2022-08-01T21:17:53;0.60;;;0.32;;
49340;SDS011;35209;51.050;13.678;2022-08-01T21:23:19;0.50;;;0.45;;
49340;SDS011;35209;51.050;13.678;2022-08-01T21:28:27;0.40;;;0.40;;
49340;SDS011;35209;51.050;13.678;2022-08-01T21:33:29;0.80;;;0.77;;
49340;SDS011;35209;51.050;13.678;2022-08-01T21:38:31;0.43;;;0.40;;
49340;SDS011;35209;51.050;13.678;2022-08-01T21:43:34;1.35;;;0.57;;
49340;SDS011;35209;51.050;13.678;2022-08-01T21:48:37;0.60;;;0.60;;
49340;SDS011;35209;51.050;13.678;2022-08-01T21:53:49;1.63;;;0.50;;
49340;SDS011;35209;51.050;13.678;2022-08-01T21:59:22;0.43;;;0.43;;
49340;SDS011;35209;51.050;13.678;2022-08-01T22:09:48;0.40;;;0.35;;
49340;SDS011;35209;51.050;13.678;2022-08-01T22:14:52;0.95;;;0.50;;
49340;SDS011;35209;51.050;13.678;2022-08-01T22:19:56;0.60;;;0.60;;
49340;SDS011;35209;51.050;13.678;2022-08-01T22:24:59;0.60;;;0.60;;
49340;SDS011;35209;51.050;13.678;2022-08-01T22:30:02;0.77;;;0.50;;
49340;SDS011;35209;51.050;13.678;2022-08-01T22:35:09;0.50;;;0.50;;
49340;SDS011;35209;51.050;13.678;2022-08-01T22:40:13;0.60;;;0.60;;
49340;SDS011;35209;51.050;13.678;2022-08-01T22:50:23;1.63;;;0.70;;
49340;SDS011;35209;51.050;13.678;2022-08-01T22:55:37;0.60;;;0.60;;
49340;SDS011;35209;51.050;13.678;2022-08-01T23:01:00;0.73;;;0.70;;
49340;SDS011;35209;51.050;13.678;2022-08-01T23:06:03;0.68;;;0.68;;
49340;SDS011;35209;51.050;13.678;2022-08-01T23:11:10;1.00;;;0.90;;
49340;SDS011;35209;51.050;13.678;2022-08-01T23:16:12;0.95;;;0.82;;
49340;SDS011;35209;51.050;13.678;2022-08-01T23:21:17;0.70;;;0.70;;
49340;SDS011;35209;51.050;13.678;2022-08-01T23:26:20;1.20;;;0.80;;
49340;SDS011;35209;51.050;13.678;2022-08-01T23:31:24;1.70;;;0.70;;
49340;SDS011;35209;51.050;13.678;2022-08-01T23:36:47;0.80;;;0.77;;
49340;SDS011;35209;51.050;13.678;2022-08-01T23:41:48;1.42;;;0.80;;
49340;SDS011;35209;51.050;13.678;2022-08-01T23:46:59;0.88;;;0.60;;
49340;SDS011;35209;51.050;13.678;2022-08-01T23:52:02;0.90;;;0.70;;
49340;SDS011;35209;51.050;13.678;2022-08-01T23:57:04;0.90;;;0.90;;
